sensor_id;sensor_type;location;lat;lon;timestamp;pressure;altitude;pressure_sealevel;temperature;humidity
43125;BME280;49182;50.788;7.318;2023-12-29T00:03:53;100491.44;;;9.68;78.92
43125;BME280;49182;50.788;7.318;2023-12-29T00:08:56;100494.06;;;9.68;78.95
43125;BME280;49182;50.788;7.318;2023-12-29T00:13:57;100446.22;;;9.42;79.01
43125;BME280;49182;50.788;7.318;2023-12-29T00:18:59;100473.50;;;9.62;78.79
43125;BME280;49182;50.788;7.318;2023-12-29T00:24:03;100480.75;;;9.69;79.62
43125;BME280;49182;50.788;7.318;2023-12-29T00:29:05;100480.19;;;9.66;78.50
43125;BME280;49182;50.788;7.318;2023-12-29T00:34:07;100483.69;;;9.76;78.89
43125;BME280;49182;50.788;7.318;2023-12-29T00:39:10;100466.66;;;9.80;78.03
43125;BME280;49182;50.788;7.318;2023-12-29T00:44:12;100459.94;;;9.76;78.28
43125;BME280;49182;50.788;7.318;2023-12-29T00:49:13;100431.19;;;9.63;78.11
43125;BME280;49182;50.788;7.318;2023-12-29T00:54:17;100448.88;;;9.82;77.71
43125;BME280;49182;50.788;7.318;2023-12-29T00:59:19;100435.88;;;9.90;77.59
43125;BME280;49182;50.788;7.318;2023-12-29T01:04:21;100440.00;;;9.83;77.57
43125;BME280;49182;50.788;7.318;2023-12-29T01:09:26;100424.88;;;9.85;77.71
43125;BME280;49182;50.788;7.318;2023-12-29T01:14:27;100418.78;;;9.85;77.26
43125;BME280;49182;50.788;7.318;2023-12-29T01:19:29;100387.25;;;9.73;78.42
43125;BME280;49182;50.788;7.318;2023-12-29T01:24:33;100383.78;;;9.73;77.45
43125;BME280;49182;50.788;7.318;2023-12-29T01:29:46;100367.50;;;9.58;77.28
43125;BME280;49182;50.788;7.318;2023-12-29T01:34:48;100410.34;;;9.91;76.83
43125;BME280;49182;50.788;7.318;2023-12-29T01:39:51;100419.63;;;9.95;76.67
43125;BME280;49182;50.788;7.318;2023-12-29T01:44:53;100425.31;;;10.00;76.60
43125;BME280;49182;50.788;7.318;2023-12-29T01:49:55;100416.91;;;10.06;76.53
43125;BME280;49182;50.788;7.318;2023-12-29T01:54:58;100416.19;;;10.13;76.31
43125;BME280;49182;50.788;7.318;2023-12-29T02:00:02;100413.03;;;10.20;76.36
43125;BME280;49182;50.788;7.318;2023-12-29T02:05:14;100418.63;;;10.17;76.22
43125;BME280;49182;50.788;7.318;2023-12-29T02:10:17;100409.44;;;10.21;76.31
43125;BME280;49182;50.788;7.318;2023-12-29T02:15:19;100419.88;;;10.22;76.61
43125;BME280;49182;50.788;7.318;2023-12-29T02:20:21;100410.28;;;10.21;76.10
43125;BME280;49182;50.788;7.318;2023-12-29T02:25:25;100403.06;;;10.23;76.91
43125;BME280;49182;50.788;7.318;2023-12-29T02:30:29;100385.97;;;10.27;76.62
43125;BME280;49182;50.788;7.318;2023-12-29T02:35:39;100383.75;;;10.32;75.92
43125;BME280;49182;50.788;7.318;2023-12-29T02:40:43;100398.50;;;10.35;75.55
43125;BME280;49182;50.788;7.318;2023-12-29T02:45:46;100377.38;;;10.44;75.22
43125;BME280;49182;50.788;7.318;2023-12-29T02:50:47;100373.75;;;10.45;75.65
43125;BME280;49182;50.788;7.318;2023-12-29T02:55:50;100370.41;;;10.43;75.90
43125;BME280;49182;50.788;7.318;2023-12-29T03:00:52;100363.22;;;10.36;75.42
43125;BME280;49182;50.788;7.318;2023-12-29T03:05:54;100367.94;;;10.42;75.63
43125;BME280;49182;50.788;7.318;2023-12-29T03:10:57;100363.63;;;10.41;75.71
43125;BME280;49182;50.788;7.318;2023-12-29T03:15:59;100367.09;;;10.41;75.38
43125;BME280;49182;50.788;7.318;2023-12-29T03:21:00;100356.97;;;10.46;75.48
43125;BME280;49182;50.788;7.318;2023-12-29T03:26:04;100346.09;;;10.49;75.23
43125;BME280;49182;50.788;7.318;2023-12-29T03:31:06;100347.50;;;10.53;75.69
43125;BME280;49182;50.788;7.318;2023-12-29T03:36:08;100347.78;;;10.50;76.02
43125;BME280;49182;50.788;7.318;2023-12-29T03:41:12;100320.16;;;10.35;76.22
43125;BME280;49182;50.788;7.318;2023-12-29T03:46:17;100318.06;;;10.39;75.85
43125;BME280;49182;50.788;7.318;2023-12-29T03:51:20;100321.97;;;10.35;76.76
43125;BME280;49182;50.788;7.318;2023-12-29T03:56:23;100343.19;;;10.52;76.21
43125;BME280;49182;50.788;7.318;2023-12-29T04:01:24;100337.91;;;10.52;75.70
43125;BME280;49182;50.788;7.318;2023-12-29T04:06:28;100346.81;;;10.51;76.17
43125;BME280;49182;50.788;7.318;2023-12-29T04:11:31;100336.81;;;10.55;75.71
43125;BME280;49182;50.788;7.318;2023-12-29T04:16:33;100339.88;;;10.60;75.56
43125;BME280;49182;50.788;7.318;2023-12-29T04:21:35;100276.69;;;10.30;75.52
43125;BME280;49182;50.788;7.318;2023-12-29T04:26:38;100334.84;;;10.57;75.77
43125;BME280;49182;50.788;7.318;2023-12-29T04:31:41;100328.47;;;10.60;76.33
43125;BME280;49182;50.788;7.318;2023-12-29T04:36:43;100330.41;;;10.58;75.76
43125;BME280;49182;50.788;7.318;2023-12-29T04:41:46;100324.19;;;10.49;75.71
43125;BME280;49182;50.788;7.318;2023-12-29T04:46:48;100326.66;;;10.60;76.21
43125;BME280;49182;50.788;7.318;2023-12-29T04:51:49;100319.00;;;10.67;76.09
43125;BME280;49182;50.788;7.318;2023-12-29T04:56:52;100311.94;;;10.58;76.81
43125;BME280;49182;50.788;7.318;2023-12-29T05:01:54;100322.91;;;10.53;77.39
43125;BME280;49182;50.788;7.318;2023-12-29T05:06:56;100323.06;;;10.61;76.96
43125;BME280;49182;50.788;7.318;2023-12-29T05:11:59;100333.06;;;10.58;77.87
43125;BME280;49182;50.788;7.318;2023-12-29T05:17:01;100333.47;;;10.53;78.35
43125;BME280;49182;50.788;7.318;2023-12-29T05:22:03;100332.78;;;10.51;78.62
43125;BME280;49182;50.788;7.318;2023-12-29T05:27:06;100346.41;;;10.46;79.16
43125;BME280;49182;50.788;7.318;2023-12-29T05:32:08;100356.53;;;10.51;79.01
43125;BME280;49182;50.788;7.318;2023-12-29T05:37:10;100357.22;;;10.43;79.69
43125;BME280;49182;50.788;7.318;2023-12-29T05:42:13;100349.19;;;10.35;80.17
43125;BME280;49182;50.788;7.318;2023-12-29T05:47:16;100354.44;;;10.45;80.76
43125;BME280;49182;50.788;7.318;2023-12-29T05:52:18;100350.28;;;10.33;81.25
43125;BME280;49182;50.788;7.318;2023-12-29T05:57:21;100358.06;;;10.44;80.55
43125;BME280;49182;50.788;7.318;2023-12-29T06:02:23;100338.50;;;10.37;81.04
43125;BME280;49182;50.788;7.318;2023-12-29T06:07:24;100359.59;;;10.27;81.72
43125;BME280;49182;50.788;7.318;2023-12-29T06:12:27;100364.63;;;10.30;82.07
43125;BME280;49182;50.788;7.318;2023-12-29T06:17:29;100355.59;;;10.23;82.50
43125;BME280;49182;50.788;7.318;2023-12-29T06:22:31;100364.59;;;10.40;81.28
43125;BME280;49182;50.788;7.318;2023-12-29T06:27:34;100355.69;;;10.31;82.32
43125;BME280;49182;50.788;7.318;2023-12-29T06:32:35;100365.28;;;10.32;82.07
43125;BME280;49182;50.788;7.318;2023-12-29T06:37:38;100347.38;;;10.17;82.21
43125;BME280;49182;50.788;7.318;2023-12-29T06:42:41;100349.34;;;10.24;83.06
43125;BME280;49182;50.788;7.318;2023-12-29T06:47:42;100346.28;;;10.29;82.64
43125;BME280;49182;50.788;7.318;2023-12-29T06:52:45;100342.22;;;10.25;82.83
43125;BME280;49182;50.788;7.318;2023-12-29T06:57:48;100337.78;;;10.25;82.49
43125;BME280;49182;50.788;7.318;2023-12-29T07:02:50;100329.03;;;10.25;83.20
43125;BME280;49182;50.788;7.318;2023-12-29T07:07:51;100321.13;;;10.25;82.75
43125;BME280;49182;50.788;7.318;2023-12-29T07:12:54;100324.88;;;10.32;82.93
43125;BME280;49182;50.788;7.318;2023-12-29T07:17:56;100312.09;;;10.27;82.76
43125;BME280;49182;50.788;7.318;2023-12-29T07:22:59;100329.03;;;10.25;83.42
43125;BME280;49182;50.788;7.318;2023-12-29T07:28:03;100308.06;;;10.33;82.80
43125;BME280;49182;50.788;7.318;2023-12-29T07:33:06;100303.94;;;10.30;83.00
43125;BME280;49182;50.788;7.318;2023-12-29T07:38:08;100277.81;;;10.18;82.81
43125;BME280;49182;50.788;7.318;2023-12-29T07:43:11;100306.97;;;10.26;83.80
43125;BME280;49182;50.788;7.318;2023-12-29T07:48:13;100320.84;;;10.28;84.58
43125;BME280;49182;50.788;7.318;2023-12-29T07:53:15;100318.22;;;10.28;84.35
43125;BME280;49182;50.788;7.318;2023-12-29T07:58:19;100316.81;;;10.33;83.97
43125;BME280;49182;50.788;7.318;2023-12-29T08:03:21;100266.81;;;10.03;84.25
43125;BME280;49182;50.788;7.318;2023-12-29T08:08:23;100295.16;;;10.30;83.93
43125;BME280;49182;50.788;7.318;2023-12-29T08:13:26;100303.75;;;10.32;83.91
43125;BME280;49182;50.788;7.318;2023-12-29T08:18:27;100302.78;;;10.33;83.47
43125;BME280;49182;50.788;7.318;2023-12-29T08:23:29;100301.69;;;10.35;84.04
43125;BME280;49182;50.788;7.318;2023-12-29T08:28:32;100252.94;;;10.10;83.46
43125;BME280;49182;50.788;7.318;2023-12-29T08:33:34;100301.66;;;10.45;83.02
43125;BME280;49182;50.788;7.318;2023-12-29T08:38:35;100291.94;;;10.55;82.58
43125;BME280;49182;50.788;7.318;2023-12-29T08:43:38;100296.66;;;10.51;83.28
43125;BME280;49182;50.788;7.318;2023-12-29T08:48:40;100297.34;;;10.53;82.95
43125;BME280;49182;50.788;7.318;2023-12-29T08:53:42;100296.94;;;10.58;81.57
43125;BME280;49182;50.788;7.318;2023-12-29T08:58:45;100301.94;;;10.61;82.46
43125;BME280;49182;50.788;7.318;2023-12-29T09:03:47;100315.53;;;10.66;82.60
43125;BME280;49182;50.788;7.318;2023-12-29T09:08:49;100307.91;;;10.44;82.05
43125;BME280;49182;50.788;7.318;2023-12-29T09:13:56;100324.00;;;10.70;81.82
43125;BME280;49182;50.788;7.318;2023-12-29T09:18:57;100324.81;;;10.70;82.20
43125;BME280;49182;50.788;7.318;2023-12-29T09:23:59;100273.47;;;10.55;82.51
43125;BME280;49182;50.788;7.318;2023-12-29T09:29:02;100316.06;;;10.79;82.26
43125;BME280;49182;50.788;7.318;2023-12-29T09:34:04;100321.50;;;10.78;82.31
43125;BME280;49182;50.788;7.318;2023-12-29T09:39:06;100322.03;;;10.81;82.39
43125;BME280;49182;50.788;7.318;2023-12-29T09:44:13;100332.75;;;10.80;81.97
43125;BME280;49182;50.788;7.318;2023-12-29T09:49:16;100319.28;;;10.73;84.12
43125;BME280;49182;50.788;7.318;2023-12-29T09:54:20;100343.28;;;10.89;84.08
43125;BME280;49182;50.788;7.318;2023-12-29T09:59:24;100339.09;;;10.87;82.74
43125;BME280;49182;50.788;7.318;2023-12-29T10:04:26;100320.78;;;10.76;83.22
43125;BME280;49182;50.788;7.318;2023-12-29T10:09:28;100363.00;;;10.95;83.72
43125;BME280;49182;50.788;7.318;2023-12-29T10:14:37;100362.59;;;10.90;83.13
43125;BME280;49182;50.788;7.318;2023-12-29T10:19:47;100263.88;;;10.44;83.29
43125;BME280;49182;50.788;7.318;2023-12-29T10:24:51;100353.72;;;10.91;82.86
43125;BME280;49182;50.788;7.318;2023-12-29T10:29:54;100347.44;;;10.92;83.69
43125;BME280;49182;50.788;7.318;2023-12-29T10:35:08;100317.31;;;10.75;83.93
43125;BME280;49182;50.788;7.318;2023-12-29T10:40:16;100346.72;;;11.00;83.89
43125;BME280;49182;50.788;7.318;2023-12-29T10:45:20;100347.00;;;10.97;83.05
43125;BME280;49182;50.788;7.318;2023-12-29T10:50:22;100333.22;;;11.03;82.21
43125;BME280;49182;50.788;7.318;2023-12-29T10:55:24;100341.94;;;11.13;82.51
43125;BME280;49182;50.788;7.318;2023-12-29T11:00:30;100331.38;;;11.13;81.69
43125;BME280;49182;50.788;7.318;2023-12-29T11:05:32;100329.09;;;11.27;80.30
43125;BME280;49182;50.788;7.318;2023-12-29T11:10:34;100347.47;;;11.29;80.43
43125;BME280;49182;50.788;7.318;2023-12-29T11:15:38;100334.22;;;11.02;80.40
43125;BME280;49182;50.788;7.318;2023-12-29T11:20:44;100315.91;;;11.18;80.49
43125;BME280;49182;50.788;7.318;2023-12-29T11:25:46;100333.38;;;11.38;79.61
43125;BME280;49182;50.788;7.318;2023-12-29T11:30:50;100336.00;;;11.38;80.10
43125;BME280;49182;50.788;7.318;2023-12-29T11:35:55;100325.09;;;11.51;78.00
43125;BME280;49182;50.788;7.318;2023-12-29T11:41:03;100319.13;;;11.49;78.18
43125;BME280;49182;50.788;7.318;2023-12-29T11:46:32;100319.41;;;11.46;77.71
43125;BME280;49182;50.788;7.318;2023-12-29T11:51:35;100306.34;;;11.44;78.73
43125;BME280;49182;50.788;7.318;2023-12-29T11:56:38;100306.97;;;11.56;78.03
43125;BME280;49182;50.788;7.318;2023-12-29T12:01:41;100298.50;;;11.52;78.44
43125;BME280;49182;50.788;7.318;2023-12-29T12:06:43;100308.41;;;11.50;77.83
43125;BME280;49182;50.788;7.318;2023-12-29T12:11:44;100280.25;;;11.59;77.78
43125;BME280;49182;50.788;7.318;2023-12-29T12:16:51;100288.41;;;11.65;76.92
43125;BME280;49182;50.788;7.318;2023-12-29T12:21:54;100276.03;;;11.66;76.59
43125;BME280;49182;50.788;7.318;2023-12-29T12:26:55;100279.09;;;11.61;77.32
43125;BME280;49182;50.788;7.318;2023-12-29T12:31:59;100268.25;;;11.64;76.82
43125;BME280;49182;50.788;7.318;2023-12-29T12:37:00;100242.41;;;11.58;76.38
43125;BME280;49182;50.788;7.318;2023-12-29T12:42:03;100254.00;;;11.75;76.91
43125;BME280;49182;50.788;7.318;2023-12-29T12:47:09;100275.44;;;11.72;77.37
43125;BME280;49182;50.788;7.318;2023-12-29T12:52:11;100273.66;;;11.63;78.18
43125;BME280;49182;50.788;7.318;2023-12-29T12:57:13;100272.56;;;11.65;79.08
43125;BME280;49182;50.788;7.318;2023-12-29T13:02:20;100275.34;;;11.64;79.69
43125;BME280;49182;50.788;7.318;2023-12-29T13:07:22;100273.75;;;11.53;79.64
43125;BME280;49182;50.788;7.318;2023-12-29T13:12:24;100257.47;;;11.48;79.93
43125;BME280;49182;50.788;7.318;2023-12-29T13:17:28;100263.06;;;11.45;80.12
43125;BME280;49182;50.788;7.318;2023-12-29T13:22:30;100267.06;;;11.49;79.52
43125;BME280;49182;50.788;7.318;2023-12-29T13:27:32;100253.63;;;11.43;80.82
43125;BME280;49182;50.788;7.318;2023-12-29T13:32:35;100262.56;;;11.42;80.73
43125;BME280;49182;50.788;7.318;2023-12-29T13:37:44;100254.16;;;11.46;80.41
43125;BME280;49182;50.788;7.318;2023-12-29T13:42:50;100246.44;;;11.35;80.71
43125;BME280;49182;50.788;7.318;2023-12-29T13:47:56;100246.81;;;11.40;80.96
43125;BME280;49182;50.788;7.318;2023-12-29T13:52:59;100233.63;;;11.40;81.27
43125;BME280;49182;50.788;7.318;2023-12-29T13:58:08;100237.84;;;11.23;81.75
43125;BME280;49182;50.788;7.318;2023-12-29T14:03:23;100220.75;;;11.27;81.78
43125;BME280;49182;50.788;7.318;2023-12-29T14:08:26;100157.91;;;10.76;84.18
43125;BME280;49182;50.788;7.318;2023-12-29T14:13:33;100226.91;;;11.18;84.62
43125;BME280;49182;50.788;7.318;2023-12-29T14:18:54;100230.44;;;11.09;85.92
43125;BME280;49182;50.788;7.318;2023-12-29T14:23:58;100244.63;;;11.08;87.76
43125;BME280;49182;50.788;7.318;2023-12-29T14:29:02;100234.53;;;10.94;90.89
43125;BME280;49182;50.788;7.318;2023-12-29T14:34:06;100242.47;;;10.94;90.73
43125;BME280;49182;50.788;7.318;2023-12-29T14:39:09;100211.09;;;10.81;89.32
43125;BME280;49182;50.788;7.318;2023-12-29T14:44:11;100207.13;;;10.68;90.31
43125;BME280;49182;50.788;7.318;2023-12-29T14:49:14;100230.81;;;10.87;89.54
43125;BME280;49182;50.788;7.318;2023-12-29T14:54:16;100232.97;;;10.74;91.60
43125;BME280;49182;50.788;7.318;2023-12-29T14:59:18;100224.88;;;10.75;90.69
43125;BME280;49182;50.788;7.318;2023-12-29T15:04:21;100224.34;;;10.72;89.30
43125;BME280;49182;50.788;7.318;2023-12-29T15:09:22;100217.28;;;10.72;90.18
43125;BME280;49182;50.788;7.318;2023-12-29T15:14:24;100227.00;;;10.72;89.89
43125;BME280;49182;50.788;7.318;2023-12-29T15:19:27;100233.13;;;10.72;89.34
43125;BME280;49182;50.788;7.318;2023-12-29T15:24:29;100224.47;;;10.80;89.06
43125;BME280;49182;50.788;7.318;2023-12-29T15:29:31;100218.25;;;10.71;90.22
43125;BME280;49182;50.788;7.318;2023-12-29T15:34:34;100203.50;;;10.69;92.79
43125;BME280;49182;50.788;7.318;2023-12-29T15:39:36;100210.34;;;10.62;91.97
43125;BME280;49182;50.788;7.318;2023-12-29T15:44:40;100203.69;;;10.58;93.07
43125;BME280;49182;50.788;7.318;2023-12-29T15:49:43;100199.94;;;10.60;92.26
43125;BME280;49182;50.788;7.318;2023-12-29T15:54:45;100196.03;;;10.64;91.59
43125;BME280;49182;50.788;7.318;2023-12-29T15:59:47;100184.09;;;10.60;92.32
43125;BME280;49182;50.788;7.318;2023-12-29T16:04:50;100185.91;;;10.60;91.04
43125;BME280;49182;50.788;7.318;2023-12-29T16:09:52;100176.03;;;10.62;91.56
43125;BME280;49182;50.788;7.318;2023-12-29T16:14:54;100182.13;;;10.72;90.76
43125;BME280;49182;50.788;7.318;2023-12-29T16:19:57;100184.88;;;10.70;90.37
43125;BME280;49182;50.788;7.318;2023-12-29T16:24:59;100175.03;;;10.72;89.49
43125;BME280;49182;50.788;7.318;2023-12-29T16:30:00;100183.09;;;10.71;89.49
43125;BME280;49182;50.788;7.318;2023-12-29T16:35:05;100146.06;;;10.53;89.19
43125;BME280;49182;50.788;7.318;2023-12-29T16:40:07;100170.59;;;10.63;89.66
43125;BME280;49182;50.788;7.318;2023-12-29T16:45:09;100183.22;;;10.69;89.69
43125;BME280;49182;50.788;7.318;2023-12-29T16:50:13;100181.56;;;10.68;89.32
43125;BME280;49182;50.788;7.318;2023-12-29T16:55:14;100187.25;;;10.73;89.14
43125;BME280;49182;50.788;7.318;2023-12-29T17:00:17;100158.69;;;10.59;88.19
43125;BME280;49182;50.788;7.318;2023-12-29T17:05:20;100184.88;;;10.70;89.09
43125;BME280;49182;50.788;7.318;2023-12-29T17:10:22;100179.91;;;10.67;89.01
43125;BME280;49182;50.788;7.318;2023-12-29T17:15:23;100158.81;;;10.58;88.70
43125;BME280;49182;50.788;7.318;2023-12-29T17:20:26;100174.44;;;10.78;88.22
43125;BME280;49182;50.788;7.318;2023-12-29T17:25:28;100172.00;;;10.67;91.71
43125;BME280;49182;50.788;7.318;2023-12-29T17:30:31;100186.75;;;10.60;91.22
43125;BME280;49182;50.788;7.318;2023-12-29T17:35:34;100192.03;;;10.60;93.57
43125;BME280;49182;50.788;7.318;2023-12-29T17:40:36;100197.91;;;10.44;95.16
43125;BME280;49182;50.788;7.318;2023-12-29T17:45:38;100194.16;;;10.37;95.04
43125;BME280;49182;50.788;7.318;2023-12-29T17:50:41;100190.28;;;10.41;94.05
43125;BME280;49182;50.788;7.318;2023-12-29T17:55:42;100187.19;;;10.46;92.39
43125;BME280;49182;50.788;7.318;2023-12-29T18:00:44;100189.28;;;10.52;89.36
43125;BME280;49182;50.788;7.318;2023-12-29T18:05:47;100182.56;;;10.58;89.53
43125;BME280;49182;50.788;7.318;2023-12-29T18:10:49;100181.75;;;10.57;90.12
43125;BME280;49182;50.788;7.318;2023-12-29T18:15:51;100162.38;;;10.39;90.26
43125;BME280;49182;50.788;7.318;2023-12-29T18:20:54;100199.19;;;10.68;89.67
43125;BME280;49182;50.788;7.318;2023-12-29T18:25:56;100225.38;;;10.61;90.09
43125;BME280;49182;50.788;7.318;2023-12-29T18:30:57;100229.81;;;10.61;88.55
43125;BME280;49182;50.788;7.318;2023-12-29T18:36:03;100235.13;;;10.51;87.84
43125;BME280;49182;50.788;7.318;2023-12-29T18:41:05;100244.25;;;10.57;87.97
43125;BME280;49182;50.788;7.318;2023-12-29T18:46:07;100239.81;;;10.57;87.20
43125;BME280;49182;50.788;7.318;2023-12-29T18:51:11;100240.06;;;10.64;86.75
43125;BME280;49182;50.788;7.318;2023-12-29T18:56:13;100153.53;;;10.01;86.19
43125;BME280;49182;50.788;7.318;2023-12-29T19:01:14;100211.25;;;10.43;84.72
43125;BME280;49182;50.788;7.318;2023-12-29T19:06:23;100258.69;;;10.62;83.01
43125;BME280;49182;50.788;7.318;2023-12-29T19:11:25;100229.97;;;10.49;84.35
43125;BME280;49182;50.788;7.318;2023-12-29T19:16:27;100252.31;;;10.65;84.79
43125;BME280;49182;50.788;7.318;2023-12-29T19:21:31;100253.97;;;10.66;84.58
43125;BME280;49182;50.788;7.318;2023-12-29T19:26:32;100250.06;;;10.70;84.52
43125;BME280;49182;50.788;7.318;2023-12-29T19:31:34;100253.41;;;10.62;85.01
43125;BME280;49182;50.788;7.318;2023-12-29T19:36:37;100248.56;;;10.67;85.51
43125;BME280;49182;50.788;7.318;2023-12-29T19:41:39;100214.81;;;10.51;85.70
43125;BME280;49182;50.788;7.318;2023-12-29T19:46:41;100161.75;;;10.18;85.95
43125;BME280;49182;50.788;7.318;2023-12-29T19:51:44;100228.94;;;10.70;85.37
43125;BME280;49182;50.788;7.318;2023-12-29T19:56:47;100150.63;;;10.24;86.34
43125;BME280;49182;50.788;7.318;2023-12-29T20:01:48;100187.13;;;10.19;88.03
43125;BME280;49182;50.788;7.318;2023-12-29T20:06:53;100250.63;;;10.64;89.45
43125;BME280;49182;50.788;7.318;2023-12-29T20:11:55;100243.38;;;10.29;93.92
43125;BME280;49182;50.788;7.318;2023-12-29T20:16:56;100252.09;;;10.10;95.91
43125;BME280;49182;50.788;7.318;2023-12-29T20:21:59;100269.06;;;10.27;97.79
43125;BME280;49182;50.788;7.318;2023-12-29T20:27:01;100287.66;;;10.25;98.95
43125;BME280;49182;50.788;7.318;2023-12-29T20:32:04;100313.59;;;10.10;100.00
43125;BME280;49182;50.788;7.318;2023-12-29T20:37:09;100282.22;;;10.07;100.00
43125;BME280;49182;50.788;7.318;2023-12-29T20:42:11;100315.25;;;10.02;100.00
43125;BME280;49182;50.788;7.318;2023-12-29T20:47:13;100313.41;;;9.64;100.00
43125;BME280;49182;50.788;7.318;2023-12-29T20:52:17;100367.59;;;9.47;100.00
43125;BME280;49182;50.788;7.318;2023-12-29T20:57:18;100349.81;;;9.40;98.32
43125;BME280;49182;50.788;7.318;2023-12-29T21:02:20;100377.59;;;9.13;96.96
43125;BME280;49182;50.788;7.318;2023-12-29T21:07:23;100347.72;;;9.03;95.25
43125;BME280;49182;50.788;7.318;2023-12-29T21:12:25;100327.50;;;8.83;94.70
43125;BME280;49182;50.788;7.318;2023-12-29T21:17:27;100330.72;;;8.66;95.79
43125;BME280;49182;50.788;7.318;2023-12-29T21:22:31;100333.75;;;8.61;96.37
43125;BME280;49182;50.788;7.318;2023-12-29T21:27:32;100329.91;;;8.44;97.16
43125;BME280;49182;50.788;7.318;2023-12-29T21:32:34;100330.53;;;8.37;97.89
43125;BME280;49182;50.788;7.318;2023-12-29T21:37:37;100216.34;;;7.34;99.72
43125;BME280;49182;50.788;7.318;2023-12-29T21:42:39;100328.06;;;8.24;99.60
43125;BME280;49182;50.788;7.318;2023-12-29T21:47:41;100344.78;;;8.23;100.00
43125;BME280;49182;50.788;7.318;2023-12-29T21:52:44;100335.69;;;8.27;100.00
43125;BME280;49182;50.788;7.318;2023-12-29T21:57:46;100332.03;;;8.19;100.00
43125;BME280;49182;50.788;7.318;2023-12-29T22:02:48;100350.28;;;8.31;100.00
43125;BME280;49182;50.788;7.318;2023-12-29T22:07:51;100360.19;;;8.28;100.00
43125;BME280;49182;50.788;7.318;2023-12-29T22:12:52;100354.59;;;8.32;100.00
43125;BME280;49182;50.788;7.318;2023-12-29T22:17:54;100351.97;;;8.32;100.00
43125;BME280;49182;50.788;7.318;2023-12-29T22:22:57;100360.34;;;8.26;100.00
43125;BME280;49182;50.788;7.318;2023-12-29T22:27:59;100334.41;;;8.33;100.00
43125;BME280;49182;50.788;7.318;2023-12-29T22:33:00;100375.06;;;8.18;100.00
43125;BME280;49182;50.788;7.318;2023-12-29T22:38:05;100390.72;;;8.19;100.00
43125;BME280;49182;50.788;7.318;2023-12-29T22:43:07;100394.88;;;8.22;100.00
43125;BME280;49182;50.788;7.318;2023-12-29T22:48:09;100394.66;;;8.25;100.00
43125;BME280;49182;50.788;7.318;2023-12-29T22:53:12;100400.03;;;8.23;100.00
43125;BME280;49182;50.788;7.318;2023-12-29T22:58:14;100384.00;;;8.15;100.00
43125;BME280;49182;50.788;7.318;2023-12-29T23:03:16;100389.41;;;8.13;100.00
43125;BME280;49182;50.788;7.318;2023-12-29T23:08:19;100374.88;;;7.98;100.00
43125;BME280;49182;50.788;7.318;2023-12-29T23:13:21;100398.38;;;8.11;100.00
43125;BME280;49182;50.788;7.318;2023-12-29T23:18:22;100398.75;;;8.06;100.00
43125;BME280;49182;50.788;7.318;2023-12-29T23:23:25;100413.25;;;8.01;100.00
43125;BME280;49182;50.788;7.318;2023-12-29T23:28:27;100412.47;;;8.10;100.00
43125;BME280;49182;50.788;7.318;2023-12-29T23:33:29;100403.75;;;8.09;100.00
43125;BME280;49182;50.788;7.318;2023-12-29T23:38:33;100400.09;;;8.01;100.00
43125;BME280;49182;50.788;7.318;2023-12-29T23:43:34;100396.16;;;7.95;100.00
43125;BME280;49182;50.788;7.318;2023-12-29T23:48:36;100393.28;;;7.98;100.00
43125;BME280;49182;50.788;7.318;2023-12-29T23:53:39;100360.84;;;7.77;100.00
43125;BME280;49182;50.788;7.318;2023-12-29T23:58:41;100385.00;;;8.03;100.00
